Time;durP1;ratioP1;P1;durP2;ratioP2;P2;SDS_P1;SDS_P2;PMS_P1;PMS_P2;Temp;Humidity;BMP_temperature;BMP_pressure;BME280_temperature;BME280_humidity;BME280_pressure;Samples;Min_cycle;Max_cycle;Signal;HPM_P1;HPM_P2
2023/04/19 06:29:22;;;;;;;;;6.50;6.00;;;;;18.73;45.51;101684.66;5066894;27;45492;-74
2023/04/19 06:31:47;;;;;;;;;6.00;5.50;;;;;19.22;46.32;101668.50;5059045;28;45793;-73
2023/04/19 06:34:13;;;;;;;;;6.50;5.00;;;;;20.16;46.59;101691.81;5068312;28;45390;-74
2023/04/19 06:36:38;;;;;;;;;4.00;4.00;;;;;20.98;46.87;101673.53;5077563;27;45523;-73
2023/04/19 06:39:03;;;;;;;;;6.25;6.25;;;;;21.89;46.17;101685.69;5055601;28;45512;-74
2023/04/19 06:41:29;;;;;;;;;5.75;5.00;;;;;22.69;45.88;101687.69;5069411;28;45614;-74
2023/04/19 06:43:55;;;;;;;;;7.75;6.50;;;;;23.33;45.22;101687.28;5068033;27;45637;-73
2023/04/19 06:46:20;;;;;;;;;7.50;7.50;;;;;23.93;44.61;101686.16;5068830;28;45382;-74
2023/04/19 06:48:45;;;;;;;;;7.50;7.50;;;;;24.44;44.37;101687.66;5064591;28;47976;-73
2023/04/19 06:51:11;;;;;;;;;6.00;6.00;;;;;24.89;43.95;101679.66;5061415;28;51699;-71
2023/04/19 06:53:36;;;;;;;;;6.00;6.00;;;;;25.22;43.37;101690.81;5068410;28;45265;-71
2023/04/19 06:56:03;;;;;;;;;7.00;7.00;;;;;25.57;42.73;101685.50;5064818;28;45437;-74
2023/04/19 06:58:29;;;;;;;;;12.33;10.00;;;;;25.81;42.60;101682.09;5047974;28;45537;-72
2023/04/19 07:00:55;;;;;;;;;9.67;9.33;;;;;26.01;41.42;101676.41;5054448;27;45517;-72
2023/04/19 07:03:21;;;;;;;;;9.00;9.00;;;;;26.19;41.07;101687.19;5064344;27;45609;-72
2023/04/19 07:05:47;;;;;;;;;7.67;7.67;;;;;26.29;41.16;101676.22;5064186;28;45891;-74
2023/04/19 07:08:12;;;;;;;;;7.33;7.33;;;;;26.43;40.26;101686.47;5062795;27;45493;-74
2023/04/19 07:10:37;;;;;;;;;9.00;7.00;;;;;26.53;40.36;101688.19;5065646;28;45791;-74
2023/04/19 07:13:03;;;;;;;;;8.00;6.67;;;;;26.61;39.54;101688.22;5066716;27;45506;-74
2023/04/19 07:15:28;;;;;;;;;9.67;8.67;;;;;26.70;40.05;101695.34;5065417;28;45443;-74
2023/04/19 07:17:54;;;;;;;;;6.00;6.00;;;;;26.76;39.45;101690.28;5064320;27;45410;-74
2023/04/19 07:20:20;;;;;;;;;7.67;5.67;;;;;26.83;38.87;101694.88;5068625;27;45556;-74
2023/04/19 07:22:45;;;;;;;;;6.00;6.00;;;;;26.87;38.78;101699.97;5064102;28;45374;-74
2023/04/19 07:25:11;;;;;;;;;8.00;7.67;;;;;26.85;38.68;101694.69;5056397;28;45453;-74
2023/04/19 07:27:36;;;;;;;;;8.00;7.67;;;;;26.83;38.86;101692.16;5062417;27;53515;-73
2023/04/19 07:30:01;;;;;;;;;8.00;8.00;;;;;26.84;38.65;101702.03;5073300;27;45771;-70
2023/04/19 07:32:27;;;;;;;;;10.00;8.67;;;;;26.83;38.40;101703.06;5076212;27;45539;-71
2023/04/19 07:34:52;;;;;;;;;7.00;7.00;;;;;26.83;38.10;101702.19;5078226;27;51018;-70
2023/04/19 07:37:18;;;;;;;;;9.67;8.33;;;;;26.80;37.59;101700.66;5059490;27;46233;-72
2023/04/19 07:39:43;;;;;;;;;9.33;8.00;;;;;26.83;37.67;101699.47;5052004;28;48746;-73
2023/04/19 07:42:09;;;;;;;;;7.00;7.00;;;;;26.84;37.88;101703.88;5069677;28;45482;-73
2023/04/19 07:44:34;;;;;;;;;7.33;7.33;;;;;26.87;37.26;101705.44;5069676;28;45574;-73
2023/04/19 07:47:00;;;;;;;;;9.67;9.00;;;;;26.87;37.34;101700.84;5064630;28;46686;-72
2023/04/19 07:49:25;;;;;;;;;7.00;7.00;;;;;26.90;37.18;101713.28;5068702;28;45735;-74
2023/04/19 07:51:50;;;;;;;;;8.33;7.00;;;;;26.93;37.58;101710.22;5065464;27;45423;-72
2023/04/19 07:54:18;;;;;;;;;7.67;7.00;;;;;26.96;37.39;101705.31;5072369;27;45400;-71
2023/04/19 07:56:44;;;;;;;;;7.33;7.00;;;;;27.00;37.26;101703.09;5073020;27;45583;-73
2023/04/19 07:59:10;;;;;;;;;8.00;8.00;;;;;27.09;36.89;101706.66;5072965;27;45411;-76
2023/04/19 08:01:35;;;;;;;;;15.33;11.00;;;;;27.15;36.96;101714.19;5051296;28;45503;-73
2023/04/19 08:04:01;;;;;;;;;9.67;8.00;;;;;27.19;36.75;101704.66;5069434;28;45412;-72
2023/04/19 08:06:26;;;;;;;;;9.00;9.00;;;;;27.21;36.68;101690.84;5071223;28;45439;-72
2023/04/19 08:08:51;;;;;;;;;7.67;7.67;;;;;27.37;36.89;101709.06;5067168;28;45722;-72
2023/04/19 08:11:17;;;;;;;;;9.33;8.67;;;;;27.47;36.81;101711.63;5066417;28;45608;-72
2023/04/19 08:13:43;;;;;;;;;9.00;7.67;;;;;27.55;36.22;101705.31;5066480;28;45535;-71
2023/04/19 08:16:08;;;;;;;;;9.33;6.33;;;;;27.59;36.99;101695.75;5069852;28;46177;-72
2023/04/19 08:18:34;;;;;;;;;11.00;9.00;;;;;27.75;36.67;101701.19;5073802;28;45796;-72
2023/04/19 08:21:00;;;;;;;;;5.33;5.33;;;;;27.79;36.41;101701.69;5072967;28;45440;-72
2023/04/19 08:23:25;;;;;;;;;8.33;6.33;;;;;27.88;36.14;101705.25;5066740;28;45389;-72
2023/04/19 08:25:57;;;;;;;;;5.67;5.67;;;;;27.95;36.01;101703.53;5069292;28;45494;-73
2023/04/19 08:28:22;;;;;;;;;7.33;6.00;;;;;27.99;36.23;101699.41;5043058;28;45521;-72
2023/04/19 08:30:48;;;;;;;;;5.67;4.67;;;;;27.97;36.19;101684.25;5047946;28;52179;-72
2023/04/19 08:33:13;;;;;;;;;7.00;6.33;;;;;28.12;35.93;101701.59;5047233;28;45496;-72
2023/04/19 08:35:40;;;;;;;;;10.67;8.33;;;;;28.15;35.22;101692.19;5050345;28;47520;-71
2023/04/19 08:38:06;;;;;;;;;5.00;5.00;;;;;28.18;35.50;101690.97;5053704;28;45769;-72
2023/04/19 08:40:31;;;;;;;;;5.67;5.67;;;;;28.23;35.25;101688.56;5051304;28;45497;-70
2023/04/19 08:42:57;;;;;;;;;6.00;6.00;;;;;28.26;35.96;101691.84;5048245;28;45509;-71
2023/04/19 08:45:26;;;;;;;;;10.00;6.33;;;;;28.31;35.01;101694.03;5049512;28;46024;-71
2023/04/19 08:47:53;;;;;;;;;7.33;7.33;;;;;28.36;35.81;101693.50;5054272;28;45422;-71
2023/04/19 08:50:20;;;;;;;;;7.00;7.00;;;;;28.39;35.57;101698.59;5047615;28;45722;-71
2023/04/19 08:52:46;;;;;;;;;8.33;7.67;;;;;28.40;35.05;101692.09;5046643;28;45422;-73
2023/04/19 08:55:14;;;;;;;;;8.33;7.00;;;;;28.42;35.54;101692.78;5048737;28;46107;-72
2023/04/19 08:57:39;;;;;;;;;8.67;8.33;;;;;28.44;35.08;101689.88;5038855;28;45643;-73
2023/04/19 09:00:10;;;;;;;;;6.00;6.00;;;;;28.46;35.41;101687.81;5038498;28;45400;-72
2023/04/19 09:02:46;;;;;;;;;9.00;7.00;;;;;28.48;35.25;101685.78;5052038;28;45649;-73
2023/04/19 09:05:13;;;;;;;;;7.33;6.33;;;;;28.48;34.91;101681.13;5048593;28;46733;-72
2023/04/19 09:07:38;;;;;;;;;9.00;8.67;;;;;28.46;35.30;101669.56;5039352;28;45598;-72
2023/04/19 09:10:07;;;;;;;;;8.33;8.33;;;;;28.53;34.93;101680.63;5042704;28;49074;-73
2023/04/19 09:12:33;;;;;;;;;6.00;6.00;;;;;28.57;35.02;101684.66;5048876;28;45411;-72
2023/04/19 09:15:00;;;;;;;;;6.00;6.00;;;;;28.62;34.81;101690.47;5047051;28;46227;-72
2023/04/19 09:17:25;;;;;;;;;11.33;8.33;;;;;28.66;35.08;101690.94;5033616;28;45506;-71
2023/04/19 09:19:50;;;;;;;;;6.67;5.00;;;;;28.66;34.36;101691.78;5039159;28;47194;-71
2023/04/19 09:22:16;;;;;;;;;5.67;5.67;;;;;28.69;34.21;101690.56;5046602;28;45471;-70
2023/04/19 09:24:42;;;;;;;;;6.00;6.00;;;;;28.71;34.95;101691.25;5032547;28;46106;-70
2023/04/19 09:27:10;;;;;;;;;10.67;7.33;;;;;28.70;34.36;101689.56;5047929;28;51002;-69
2023/04/19 09:29:36;;;;;;;;;8.33;7.33;;;;;28.72;34.08;101689.38;5074130;28;45511;-71
2023/04/19 09:32:01;;;;;;;;;4.00;4.00;;;;;28.72;34.76;101683.91;5067985;28;45468;-71
2023/04/19 09:34:29;;;;;;;;;6.67;6.33;;;;;28.73;33.93;101685.59;5061696;28;46970;-72
2023/04/19 09:36:55;;;;;;;;;6.33;6.33;;;;;28.73;34.43;101677.41;5066445;28;45582;-72
2023/04/19 09:39:31;;;;;;;;;8.33;7.00;;;;;28.75;34.07;101675.34;5058801;28;45583;-72
2023/04/19 09:41:57;;;;;;;;;5.67;5.67;;;;;28.73;34.38;101666.50;5061738;28;45822;-72
2023/04/19 09:44:23;;;;;;;;;6.33;6.00;;;;;28.70;34.19;101673.16;5062791;28;46052;-72
2023/04/19 09:46:50;;;;;;;;;7.00;6.00;;;;;28.69;34.39;101679.63;5069598;28;45399;-72
2023/04/19 09:49:25;;;;;;;;;8.00;6.33;;;;;28.65;33.79;101681.88;5070100;28;45432;-72
2023/04/19 09:51:53;;;;;;;;;8.67;7.00;;;;;28.65;34.11;101664.66;5069160;28;45768;-72
2023/04/19 09:54:27;;;;;;;;;7.00;6.00;;;;;28.64;33.87;101662.94;5071319;28;45690;-72
2023/04/19 09:56:53;;;;;;;;;7.33;6.00;;;;;28.64;34.30;101661.06;5069180;27;45381;-72
2023/04/19 09:59:18;;;;;;;;;8.33;6.33;;;;;28.61;34.03;101666.88;5066376;28;45890;-72
2023/04/19 10:01:53;;;;;;;;;6.00;6.00;;;;;28.58;34.13;101652.75;5069484;28;45955;-72
2023/04/19 10:04:22;;;;;;;;;5.00;5.00;;;;;28.62;34.19;101652.22;5065748;28;45819;-72
2023/04/19 10:06:49;;;;;;;;;7.00;7.00;;;;;28.62;33.85;101652.22;5048260;28;45701;-72
2023/04/19 10:09:16;;;;;;;;;6.00;5.67;;;;;28.60;34.00;101643.34;5052530;28;45341;-74
2023/04/19 10:11:48;;;;;;;;;10.00;6.00;;;;;28.59;33.47;101638.91;5052884;28;45498;-74
2023/04/19 10:14:15;;;;;;;;;8.00;8.00;;;;;28.51;33.45;101633.50;5052792;28;45983;-75
2023/04/19 10:16:40;;;;;;;;;7.67;7.67;;;;;28.47;33.08;101640.34;5053234;28;45718;-74
2023/04/19 10:19:14;;;;;;;;;9.33;8.00;;;;;28.41;33.16;101645.50;5062483;28;45451;-74
2023/04/19 10:21:46;;;;;;;;;7.00;7.00;;;;;28.34;33.12;101630.03;5067143;28;45320;-74
2023/04/19 10:24:13;;;;;;;;;9.00;6.67;;;;;28.28;33.56;101628.88;5062423;28;47024;-74
2023/04/19 10:27:13;;;;;;;;;8.00;7.00;;;;;28.23;33.02;101639.44;5059952;28;45441;-74
2023/04/19 10:29:50;;;;;;;;;7.33;7.33;;;;;28.20;33.26;101637.09;5065298;28;45870;-74
2023/04/19 10:32:16;;;;;;;;;9.00;9.00;;;;;28.17;32.94;101632.84;5073065;28;45433;-74
2023/04/19 10:34:42;;;;;;;;;8.00;8.00;;;;;28.13;33.52;101634.22;5053896;28;46502;-74
2023/04/19 10:37:12;;;;;;;;;6.67;6.67;;;;;28.12;33.32;101625.16;5073020;28;45451;-74
2023/04/19 10:39:40;;;;;;;;;7.00;7.00;;;;;28.12;32.91;101637.97;5069504;28;45624;-74
2023/04/19 10:42:05;;;;;;;;;7.00;6.67;;;;;28.10;33.02;101634.56;5072874;28;45807;-73
2023/04/19 10:44:31;;;;;;;;;7.33;7.33;;;;;28.06;32.97;101623.16;5053471;28;48147;-73
2023/04/19 10:46:58;;;;;;;;;8.33;7.33;;;;;28.07;33.59;101619.41;5072565;28;45572;-73
2023/04/19 10:49:23;;;;;;;;;9.33;9.33;;;;;28.07;32.96;101622.13;5069818;28;45496;-72
2023/04/19 10:51:58;;;;;;;;;9.33;7.67;;;;;28.06;33.48;101611.38;5058940;28;45411;-73
2023/04/19 10:54:31;;;;;;;;;10.33;9.00;;;;;28.10;32.96;101612.72;5057256;28;45411;-72
2023/04/19 10:57:05;;;;;;;;;10.33;9.67;;;;;28.18;33.06;101615.44;5072343;28;45554;-71
2023/04/19 10:59:32;;;;;;;;;12.67;10.00;;;;;28.27;33.52;101611.66;5059776;28;45461;-73
2023/04/19 11:02:00;;;;;;;;;11.00;9.33;;;;;28.38;33.10;101604.94;5069334;28;45435;-71
2023/04/19 11:04:28;;;;;;;;;8.00;8.00;;;;;28.48;33.48;101614.78;5070523;28;46164;-72
2023/04/19 11:07:06;;;;;;;;;7.67;7.67;;;;;28.56;32.86;101598.31;5067508;28;45441;-72
2023/04/19 11:09:41;;;;;;;;;9.67;8.00;;;;;28.63;33.57;101592.97;5040354;28;45488;-71
2023/04/19 11:12:10;;;;;;;;;8.67;8.67;;;;;28.76;33.52;101601.41;5058296;28;45520;-72
2023/04/19 11:14:42;;;;;;;;;7.00;7.00;;;;;28.82;32.91;101613.50;5053628;28;46746;-72
2023/04/19 11:17:18;;;;;;;;;7.33;7.33;;;;;28.88;32.70;101603.69;5075292;28;45550;-72
2023/04/19 11:20:05;;;;;;;;;7.67;7.67;;;;;28.93;32.71;101587.63;5067143;28;45736;-72
2023/04/19 11:22:39;;;;;;;;;10.33;8.67;;;;;29.04;32.91;101591.78;5074129;28;45549;-72
2023/04/19 11:25:08;;;;;;;;;11.00;9.00;;;;;29.09;33.46;101602.19;5073441;28;46358;-73
2023/04/19 11:27:33;;;;;;;;;11.00;9.00;;;;;29.12;33.29;101579.94;5074006;28;45763;-73
2023/04/19 11:30:13;;;;;;;;;9.67;9.67;;;;;29.17;32.69;101580.22;5072954;28;45458;-72
2023/04/19 11:32:47;;;;;;;;;7.33;7.00;;;;;29.23;32.99;101589.56;5075733;28;45455;-72
2023/04/19 11:35:13;;;;;;;;;6.67;6.67;;;;;29.26;32.85;101584.56;5046599;28;47195;-72
2023/04/19 11:37:38;;;;;;;;;9.50;8.00;;;;;29.25;32.98;101565.59;5074113;28;45505;-71
2023/04/19 11:40:08;;;;;;;;;9.00;8.00;;;;;29.37;32.48;101575.06;5055777;27;45411;-72
2023/04/19 11:42:34;;;;;;;;;8.67;8.67;;;;;29.43;32.92;101570.72;5074601;28;45583;-70
2023/04/19 11:45:00;;;;;;;;;7.67;6.00;;;;;29.45;32.61;101569.50;5065692;28;47063;-71
2023/04/19 11:47:26;;;;;;;;;8.00;8.00;;;;;29.50;33.24;101559.88;5065484;28;45598;-72
2023/04/19 11:49:53;;;;;;;;;9.00;9.00;;;;;29.53;32.40;101563.09;5070860;28;45564;-72
2023/04/19 11:52:23;;;;;;;;;10.33;8.67;;;;;29.50;32.45;101571.69;5074505;28;45533;-71
2023/04/19 11:54:52;;;;;;;;;12.00;9.67;;;;;29.48;32.39;101559.22;5059913;27;45726;-74
2023/04/19 11:57:30;;;;;;;;;10.00;10.00;;;;;29.44;32.27;101562.34;5074005;28;45662;-72
2023/04/19 12:00:10;;;;;;;;;10.33;10.33;;;;;29.43;32.19;101562.53;5060876;28;45427;-72
2023/04/19 12:02:41;;;;;;;;;9.67;9.67;;;;;29.36;32.47;101556.09;5071898;28;45485;-72
2023/04/19 12:05:11;;;;;;;;;10.33;8.33;;;;;29.30;32.06;101564.03;5069686;28;47355;-74
2023/04/19 12:07:36;;;;;;;;;10.00;10.00;;;;;29.19;32.03;101548.09;5073173;28;45802;-73
2023/04/19 12:10:11;;;;;;;;;10.67;8.33;;;;;29.17;31.76;101541.94;5075285;28;45923;-73
2023/04/19 12:12:37;;;;;;;;;9.33;9.33;;;;;29.13;31.84;101546.94;5064472;28;47168;-74
2023/04/19 12:15:04;;;;;;;;;11.00;11.00;;;;;29.13;31.87;101551.56;5074366;27;45924;-73
2023/04/19 12:17:30;;;;;;;;;12.00;12.00;;;;;29.13;31.63;101557.03;5066686;28;45424;-72
2023/04/19 12:19:55;;;;;;;;;11.00;11.00;;;;;29.09;31.81;101537.44;5068139;28;46464;-74
2023/04/19 12:22:22;;;;;;;;;14.67;13.00;;;;;29.11;32.11;101535.38;5072857;28;45437;-74
2023/04/19 12:24:51;;;;;;;;;11.00;9.67;;;;;29.10;31.99;101546.47;5067085;28;45346;-74
2023/04/19 12:27:17;;;;;;;;;8.00;8.00;;;;;29.10;32.34;101539.13;5073712;28;45788;-75
2023/04/19 12:29:42;;;;;;;;;12.67;11.67;;;;;29.05;32.21;101531.50;5051458;28;45797;-73
2023/04/19 12:32:09;;;;;;;;;13.67;13.67;;;;;29.07;31.68;101539.50;5070593;28;45850;-70
2023/04/19 12:34:35;;;;;;;;;10.67;10.33;;;;;29.03;31.78;101524.53;5066931;28;47232;-73
2023/04/19 12:37:01;;;;;;;;;13.00;12.00;;;;;29.04;31.82;101526.22;5073488;28;45596;-74
2023/04/19 12:39:27;;;;;;;;;13.00;10.00;;;;;29.03;31.82;101528.13;5074402;28;45592;-72
2023/04/19 12:41:53;;;;;;;;;12.33;7.67;;;;;28.99;31.66;101517.72;5074609;28;45664;-72
2023/04/19 12:44:18;;;;;;;;;12.00;9.00;;;;;28.94;31.90;101510.09;5073115;28;46179;-72
2023/04/19 12:46:43;;;;;;;;;9.00;9.00;;;;;28.97;31.42;101525.28;5074427;28;45506;-72
2023/04/19 12:49:09;;;;;;;;;4.67;4.00;;;;;28.95;31.16;101516.41;5071697;28;45418;-72
2023/04/19 12:51:35;;;;;;;;;9.67;8.00;;;;;28.93;31.80;101519.31;5074384;28;45452;-72
2023/04/19 12:54:01;;;;;;;;;8.67;8.67;;;;;28.85;31.54;101508.47;5071840;28;45945;-72
2023/04/19 12:56:26;;;;;;;;;10.00;9.67;;;;;28.90;31.60;101519.72;5066321;28;45529;-72
2023/04/19 12:58:52;;;;;;;;;9.67;9.67;;;;;28.87;31.55;101509.09;5069418;28;45522;-71
2023/04/19 13:01:17;;;;;;;;;12.00;10.00;;;;;28.87;31.64;101509.97;5055912;28;45424;-74
2023/04/19 13:03:43;;;;;;;;;10.00;9.67;;;;;28.85;31.20;101506.56;5071923;28;45462;-74
2023/04/19 13:06:09;;;;;;;;;8.67;8.00;;;;;28.88;31.27;101506.22;5060387;28;45570;-74
2023/04/19 13:08:37;;;;;;;;;9.67;8.67;;;;;28.92;31.13;101499.34;5074080;28;45630;-75
2023/04/19 13:11:02;;;;;;;;;11.00;8.00;;;;;28.95;31.43;101500.00;5074668;27;45526;-75
2023/04/19 13:13:28;;;;;;;;;9.00;9.00;;;;;28.98;31.44;101496.91;5073004;28;45644;-75
2023/04/19 13:15:53;;;;;;;;;12.00;9.33;;;;;28.99;31.75;101494.00;5073592;28;45892;-75
2023/04/19 13:18:19;;;;;;;;;10.00;9.00;;;;;29.03;30.91;101497.19;5070900;28;45379;-75
2023/04/19 13:20:44;;;;;;;;;11.33;10.00;;;;;29.03;31.17;101497.19;5071478;28;45651;-76
2023/04/19 13:23:10;;;;;;;;;11.00;11.00;;;;;29.02;31.17;101493.59;5067817;28;46101;-75
2023/04/19 13:25:35;;;;;;;;;8.00;8.00;;;;;29.04;31.22;101482.47;5070873;28;45424;-74
2023/04/19 13:28:00;;;;;;;;;9.00;9.00;;;;;29.04;31.15;101482.47;5072572;28;45561;-75
2023/04/19 13:30:26;;;;;;;;;9.00;9.00;;;;;29.05;30.97;101470.50;5054120;28;45619;-72
2023/04/19 13:32:51;;;;;;;;;11.00;11.00;;;;;29.08;31.21;101481.06;5073367;28;46142;-70
2023/04/19 13:35:16;;;;;;;;;12.00;10.00;;;;;29.06;31.48;101478.53;5071581;28;45665;-72
2023/04/19 13:37:43;;;;;;;;;9.67;9.33;;;;;29.05;31.04;101465.03;5072731;28;45391;-73
2023/04/19 13:40:09;;;;;;;;;12.33;9.33;;;;;29.06;31.21;101467.59;5072891;28;45522;-74
2023/04/19 13:42:34;;;;;;;;;7.00;7.00;;;;;29.05;30.92;101465.91;5054021;28;48632;-73
2023/04/19 13:45:00;;;;;;;;;11.00;8.00;;;;;29.06;30.84;101466.75;5073015;28;45388;-73
2023/04/19 13:47:25;;;;;;;;;10.00;10.00;;;;;29.06;30.86;101459.41;5047802;28;45632;-72
2023/04/19 13:49:51;;;;;;;;;10.33;9.00;;;;;28.98;31.36;101443.09;5071460;28;45507;-73
2023/04/19 13:52:17;;;;;;;;;7.67;7.67;;;;;29.05;30.67;101451.38;5072879;28;45901;-71
2023/04/19 13:54:43;;;;;;;;;8.33;8.33;;;;;29.06;30.81;101453.09;5060544;28;45446;-70
2023/04/19 13:57:08;;;;;;;;;8.33;8.33;;;;;29.06;31.30;101444.91;5072484;28;45672;-71
2023/04/19 13:59:33;;;;;;;;;7.67;7.00;;;;;29.06;31.27;101442.19;5059616;28;47484;-70
2023/04/19 14:01:59;;;;;;;;;6.67;6.67;;;;;29.05;31.22;101446.78;5061570;28;46623;-70
2023/04/19 14:04:25;;;;;;;;;11.67;10.00;;;;;29.03;31.18;101445.28;5072845;28;45457;-71
2023/04/19 14:06:50;;;;;;;;;6.33;6.33;;;;;29.03;31.04;101435.19;5064142;28;45425;-72
2023/04/19 14:09:15;;;;;;;;;7.67;7.67;;;;;29.02;31.03;101432.66;5069393;28;45462;-72
2023/04/19 14:11:41;;;;;;;;;6.67;6.67;;;;;28.95;31.32;101412.56;5066939;27;46115;-69
2023/04/19 14:14:06;;;;;;;;;8.67;8.00;;;;;29.01;30.82;101433.69;5067770;28;45416;-69
2023/04/19 14:16:31;;;;;;;;;10.00;8.33;;;;;28.98;31.08;101421.22;5069796;28;45325;-69
2023/04/19 14:18:57;;;;;;;;;9.33;9.00;;;;;29.00;30.83;101423.78;5067847;28;50281;-70
2023/04/19 14:21:22;;;;;;;;;8.00;8.00;;;;;28.97;30.90;101430.47;5070180;28;46952;-71
2023/04/19 14:23:48;;;;;;;;;8.33;8.33;;;;;28.95;31.24;101432.56;5069374;28;45562;-71
2023/04/19 14:26:13;;;;;;;;;6.67;6.67;;;;;28.92;31.20;101430.19;5067947;28;49917;-70
2023/04/19 14:28:39;;;;;;;;;8.00;8.00;;;;;28.87;30.87;101419.81;5068188;28;45331;-70
2023/04/19 14:31:04;;;;;;;;;6.67;6.67;;;;;28.85;30.87;101412.84;5072125;28;45340;-72
2023/04/19 14:33:30;;;;;;;;;8.00;6.33;;;;;28.84;31.04;101412.00;5072306;28;46292;-72
2023/04/19 14:35:55;;;;;;;;;7.00;7.00;;;;;28.83;30.62;101415.75;5063530;28;45536;-72
2023/04/19 14:38:20;;;;;;;;;8.67;8.67;;;;;28.82;31.08;101413.22;5068953;28;52611;-71
2023/04/19 14:40:46;;;;;;;;;7.67;7.67;;;;;28.77;31.35;101414.63;5072217;28;45530;-72
2023/04/19 14:43:14;;;;;;;;;7.00;7.00;;;;;28.72;30.38;101408.03;5066556;28;45680;-71
2023/04/19 14:45:40;;;;;;;;;8.33;7.67;;;;;28.69;30.67;101406.50;5072760;28;45486;-71
2023/04/19 14:48:05;;;;;;;;;7.00;7.00;;;;;28.69;31.08;101411.16;5070897;28;48219;-70
2023/04/19 14:50:30;;;;;;;;;12.67;9.00;;;;;28.68;30.67;101399.34;5062749;28;45482;-70
2023/04/19 14:52:55;;;;;;;;;7.00;7.00;;;;;28.69;31.21;101405.69;5071440;28;64782;-72
2023/04/19 14:55:23;;;;;;;;;5.33;5.33;;;;;28.66;31.05;101406.91;5063536;28;45372;-72
2023/04/19 14:57:49;;;;;;;;;9.33;7.00;;;;;28.66;30.36;101398.72;5070969;27;45732;-72
2023/04/19 15:00:14;;;;;;;;;8.00;6.00;;;;;28.62;30.47;101397.38;5061836;27;45977;-72
2023/04/19 15:02:40;;;;;;;;;9.00;7.33;;;;;28.68;30.92;101396.63;5065965;27;45486;-72
2023/04/19 15:05:05;;;;;;;;;9.00;8.00;;;;;28.71;31.03;101395.41;5075859;28;45801;-72
2023/04/19 15:07:31;;;;;;;;;7.00;7.00;;;;;28.70;30.73;101391.84;5072692;28;45357;-72
2023/04/19 15:09:56;;;;;;;;;9.00;8.00;;;;;28.71;30.92;101393.53;5052566;28;47089;-72
2023/04/19 15:12:21;;;;;;;;;6.33;6.33;;;;;28.72;30.77;101395.22;5064851;27;45757;-72
2023/04/19 15:14:47;;;;;;;;;6.00;6.00;;;;;28.74;30.45;101390.44;5073983;28;49238;-71
2023/04/19 15:17:12;;;;;;;;;6.67;6.67;;;;;28.73;30.26;101391.44;5069814;28;51208;-71
2023/04/19 15:19:37;;;;;;;;;7.00;7.00;;;;;28.76;30.87;101393.81;5074451;28;57878;-71
2023/04/19 15:22:03;;;;;;;;;6.33;6.33;;;;;28.76;30.93;101390.22;5075343;28;45427;-72
2023/04/19 15:24:28;;;;;;;;;7.33;7.33;;;;;28.70;30.82;101386.38;5063555;28;45608;-73
2023/04/19 15:26:53;;;;;;;;;7.67;7.00;;;;;28.75;30.87;101396.72;5061115;28;45495;-76
2023/04/19 15:29:19;;;;;;;;;9.00;8.00;;;;;28.67;31.01;101371.22;5073742;28;59814;-74
2023/04/19 15:31:44;;;;;;;;;6.33;6.33;;;;;28.72;30.30;101383.47;5070159;28;45509;-74
2023/04/19 15:34:09;;;;;;;;;7.33;7.33;;;;;28.74;30.63;101375.91;5072890;28;47376;-74
2023/04/19 15:36:35;;;;;;;;;11.00;9.67;;;;;28.71;30.69;101365.34;5075318;28;45438;-75
2023/04/19 15:39:00;;;;;;;;;13.67;12.00;;;;;28.71;30.86;101379.00;5073937;28;46491;-74
2023/04/19 15:41:25;;;;;;;;;11.67;9.00;;;;;28.72;30.63;101375.28;5074286;28;53589;-74
2023/04/19 15:43:51;;;;;;;;;10.67;9.00;;;;;28.72;30.09;101387.03;5052895;28;45805;-73
2023/04/19 15:46:17;;;;;;;;;7.00;7.00;;;;;28.70;30.24;101375.47;5063920;28;45447;-73
2023/04/19 15:48:43;;;;;;;;;8.33;8.00;;;;;28.71;30.23;101379.88;5073125;28;45584;-72
2023/04/19 15:51:10;;;;;;;;;12.00;10.67;;;;;28.71;30.30;101382.59;5069220;28;45730;-73
2023/04/19 15:53:35;;;;;;;;;12.00;10.00;;;;;28.66;30.68;101377.69;5057707;28;45471;-72
2023/04/19 15:56:01;;;;;;;;;8.33;7.33;;;;;28.69;30.03;101384.66;5069298;28;45411;-72
2023/04/19 15:58:26;;;;;;;;;9.00;8.33;;;;;28.65;30.29;101370.53;5066208;28;45462;-72
2023/04/19 16:00:52;;;;;;;;;8.00;8.00;;;;;28.69;30.49;101386.56;5063308;28;45379;-73
2023/04/19 16:03:17;;;;;;;;;10.67;6.67;;;;;28.66;30.72;101379.59;5068450;28;45477;-71
2023/04/19 16:05:42;;;;;;;;;8.00;7.00;;;;;28.63;29.96;101375.34;5063210;28;45523;-72
2023/04/19 16:08:09;;;;;;;;;7.33;7.33;;;;;28.61;30.53;101376.59;5073105;28;58363;-73
2023/04/19 16:10:35;;;;;;;;;9.00;7.00;;;;;28.67;30.25;101389.47;5074927;28;45675;-72
2023/04/19 16:13:02;;;;;;;;;7.67;6.67;;;;;28.72;30.25;101395.22;5069011;28;45597;-69
2023/04/19 16:15:27;;;;;;;;;12.33;9.33;;;;;28.73;30.45;101390.63;5074616;28;45482;-73
2023/04/19 16:17:53;;;;;;;;;8.00;6.33;;;;;28.71;30.15;101377.13;5056652;28;46027;-73
2023/04/19 16:20:19;;;;;;;;;10.00;9.67;;;;;28.80;30.53;101391.53;5074753;28;45533;-73
2023/04/19 16:22:44;;;;;;;;;10.33;8.67;;;;;28.77;30.78;101378.28;5068926;28;45478;-73
2023/04/19 16:25:11;;;;;;;;;6.33;6.33;;;;;28.88;30.48;101396.94;5074454;28;45654;-73
2023/04/19 16:27:41;;;;;;;;;9.00;8.00;;;;;28.91;30.20;101393.00;5064122;28;45673;-73
2023/04/19 16:30:07;;;;;;;;;8.33;6.67;;;;;28.92;30.72;101397.41;5066258;28;45421;-75
2023/04/19 16:32:32;;;;;;;;;9.33;8.00;;;;;28.91;30.24;101391.13;5063457;28;45443;-74
2023/04/19 16:34:57;;;;;;;;;4.00;4.00;;;;;28.89;30.16;101395.06;5061622;28;45454;-74
2023/04/19 16:37:23;;;;;;;;;9.00;7.33;;;;;28.80;30.20;101386.09;5074810;28;45370;-74
2023/04/19 16:39:48;;;;;;;;;8.33;8.33;;;;;28.79;30.16;101384.38;5074512;28;47913;-74
2023/04/19 16:42:14;;;;;;;;;8.33;8.00;;;;;28.72;30.00;101400.69;5072701;28;45511;-74
2023/04/19 16:44:39;;;;;;;;;9.00;9.00;;;;;28.61;29.91;101388.34;5071967;28;45354;-74
2023/04/19 16:47:04;;;;;;;;;7.67;7.00;;;;;28.59;29.87;101398.59;5059977;28;46434;-74
2023/04/19 16:49:30;;;;;;;;;9.00;8.00;;;;;28.53;30.17;101392.00;5056005;28;45399;-75
2023/04/19 16:51:55;;;;;;;;;7.00;7.00;;;;;28.51;30.07;101391.34;5074227;27;45871;-74
2023/04/19 16:54:21;;;;;;;;;7.00;5.67;;;;;28.51;30.73;101391.34;5073750;27;45406;-74
2023/04/19 16:56:47;;;;;;;;;6.33;6.33;;;;;28.51;30.00;101401.41;5074244;28;46457;-75
2023/04/19 16:59:12;;;;;;;;;6.67;6.00;;;;;28.50;30.09;101388.81;5059859;28;55521;-74
2023/04/19 17:01:37;;;;;;;;;6.33;5.33;;;;;28.45;30.51;101389.38;5061219;28;45493;-74
2023/04/19 17:04:03;;;;;;;;;7.67;7.67;;;;;28.41;30.06;101394.34;5073526;28;50399;-75
2023/04/19 17:06:28;;;;;;;;;7.33;5.00;;;;;28.36;29.92;101385.88;5073220;28;45571;-75
2023/04/19 17:08:53;;;;;;;;;8.00;8.00;;;;;28.38;29.91;101397.47;5072099;28;57158;-74
2023/04/19 17:11:18;;;;;;;;;6.33;5.67;;;;;28.37;30.52;101387.56;5073608;28;53067;-74
2023/04/19 17:13:44;;;;;;;;;6.33;6.33;;;;;28.32;30.76;101390.00;5059883;28;45623;-74
2023/04/19 17:16:09;;;;;;;;;6.67;6.67;;;;;28.28;30.28;101386.81;5065390;28;50283;-74
2023/04/19 17:18:34;;;;;;;;;6.67;6.67;;;;;28.27;30.60;101393.31;5060329;28;50452;-74
2023/04/19 17:21:00;;;;;;;;;7.67;6.00;;;;;28.24;30.79;101393.66;5072292;28;45740;-74
2023/04/19 17:23:25;;;;;;;;;7.67;6.67;;;;;28.26;30.29;101386.16;5073291;28;45551;-75
2023/04/19 17:25:50;;;;;;;;;6.67;5.33;;;;;28.25;30.16;101391.78;5067166;28;45495;-74
2023/04/19 17:28:16;;;;;;;;;7.00;7.00;;;;;28.24;30.30;101379.16;5077436;27;54653;-74
2023/04/19 17:30:41;;;;;;;;;7.67;7.67;;;;;28.26;30.48;101382.56;5073823;28;45621;-74
2023/04/19 17:33:06;;;;;;;;;7.67;6.67;;;;;28.24;30.39;101390.94;5073251;28;46516;-74
2023/04/19 17:35:32;;;;;;;;;5.33;5.33;;;;;28.20;30.55;101380.56;5069358;28;46198;-74
2023/04/19 17:37:57;;;;;;;;;6.00;6.00;;;;;28.17;30.75;101384.50;5063220;27;48129;-74
2023/04/19 17:40:25;;;;;;;;;6.33;5.33;;;;;28.20;30.34;101383.28;5061441;28;56768;-73
2023/04/19 17:42:50;;;;;;;;;5.33;5.33;;;;;28.15;30.65;101384.69;5071456;28;45501;-73
2023/04/19 17:45:16;;;;;;;;;5.67;5.67;;;;;28.15;30.57;101379.22;5067327;28;45522;-73
2023/04/19 17:47:41;;;;;;;;;4.00;4.00;;;;;28.10;29.85;101387.13;5069699;28;45441;-75